Swift, Minnesota
Current Conditions -  °F | °C
As of 6:14 AM on Saturday 25 Oct 2014 (Local Time) from KRRT Reporting Station
Clear Clear  
Wind Chill: 32°   Ceiling: Unl
Heat Index: 39°   Visibility: 10mi
Dew Point: 34°   Wind: 12mph
Humidity: 81%   Direction: 250°WSW
Pressure: 29.91"   Gusts: NA
Location:  48.85°N, 95.22°W
Report Text: KRRT 251114Z AUTO 25010KT 10SM CLR 04/01 A2991 RMK AO2
Loading
Personal Weather Stations






























Interactive Weather Map
Tropical Storm Tracking
New forecast layout! Learn more

10-Day Weather Forecast

Advertisements
Track Severe Weather on mobile